createdAt,value
2018-07-24T00:02:08.660Z,72.90
2018-07-24T00:04:42.159Z,73.40
2018-07-24T00:07:22.444Z,73.30
2018-07-24T00:09:56.439Z,73.80
2018-07-24T00:12:32.249Z,74.50
2018-07-24T00:15:08.109Z,74.90
2018-07-24T00:17:40.632Z,75.50
2018-07-24T00:20:25.580Z,76.50
2018-07-24T00:22:57.972Z,77.00
2018-07-24T00:25:30.908Z,77.90
2018-07-24T00:28:07.772Z,78.40
2018-07-24T00:30:44.625Z,78.20
2018-07-24T00:33:23.219Z,78.00
2018-07-24T00:35:55.984Z,79.40
2018-07-24T00:38:29.528Z,80.10
2018-07-24T00:41:03.325Z,81.50
2018-07-24T00:43:36.070Z,81.80
2018-07-24T00:46:09.097Z,81.40
2018-07-24T00:48:41.558Z,82.80
2018-07-24T00:51:20.652Z,83.80
2018-07-24T00:53:57.044Z,84.70
2018-07-24T00:56:31.321Z,86.10
2018-07-24T00:59:10.211Z,87.10
2018-07-24T01:01:42.988Z,88.70
2018-07-24T01:04:15.448Z,90.20
2018-07-24T01:06:48.093Z,90.90
2018-07-24T01:09:27.805Z,92.20
2018-07-24T01:12:02.806Z,93.20
2018-07-24T01:14:47.028Z,94.30
2018-07-24T01:17:24.929Z,95.70
2018-07-24T01:19:59.993Z,97.40
2018-07-24T01:22:37.809Z,99.90
2018-07-24T01:25:12.451Z,99.90
2018-07-24T01:31:16.869Z,99.90
2018-07-24T01:33:49.088Z,99.90
2018-07-24T01:36:21.406Z,99.90
2018-07-24T01:38:53.965Z,99.90
2018-07-24T01:41:26.278Z,99.90
2018-07-24T01:44:01.937Z,99.90
2018-07-24T01:46:35.619Z,99.90
2018-07-24T01:49:08.413Z,99.90
2018-07-24T01:51:41.145Z,99.90
2018-07-24T01:54:13.544Z,99.90
2018-07-24T01:56:45.915Z,99.90
2018-07-24T01:59:29.903Z,99.90
2018-07-24T02:04:34.724Z,99.90
2018-07-24T02:07:08.063Z,99.90
2018-07-24T02:09:40.321Z,99.90
2018-07-24T02:12:12.402Z,99.90
2018-07-24T02:14:46.186Z,99.90
2018-07-24T02:17:18.308Z,99.90
2018-07-24T02:19:50.708Z,99.90
2018-07-24T02:22:22.867Z,99.90
2018-07-24T02:24:54.939Z,99.90
2018-07-24T02:27:27.367Z,99.90
2018-07-24T02:30:02.596Z,99.90
2018-07-24T02:32:34.809Z,99.90
2018-07-24T02:35:07.389Z,99.90
2018-07-24T02:37:39.569Z,99.90
2018-07-24T02:40:11.925Z,99.90
2018-07-24T02:42:44.373Z,99.90
2018-07-24T02:45:16.842Z,99.90
2018-07-24T02:47:51.201Z,99.90
2018-07-24T02:52:54.740Z,99.90
2018-07-24T02:55:27.046Z,99.90
2018-07-24T02:57:59.178Z,99.90
2018-07-24T03:00:31.962Z,99.90
2018-07-24T03:06:37.649Z,99.90
2018-07-24T03:09:13.433Z,99.90
2018-07-24T03:11:46.236Z,99.90
2018-07-24T03:14:18.875Z,99.90
2018-07-24T03:16:51.860Z,99.90
2018-07-24T03:22:44.929Z,99.90
2018-07-24T03:28:38.600Z,99.90
2018-07-24T03:34:42.012Z,99.90
2018-07-24T03:37:14.070Z,99.90
2018-07-24T03:39:49.261Z,99.90
2018-07-24T03:45:52.588Z,99.90
2018-07-24T03:48:24.824Z,99.90
2018-07-24T03:50:57.381Z,99.90
2018-07-24T03:56:50.668Z,99.90
2018-07-24T03:59:24.122Z,99.90
2018-07-24T04:01:56.888Z,99.90
2018-07-24T04:04:29.758Z,99.90
2018-07-24T04:07:02.824Z,99.90
2018-07-24T04:09:35.792Z,99.90
2018-07-24T04:14:40.213Z,99.90
2018-07-24T04:17:13.021Z,99.90
2018-07-24T04:23:07.001Z,99.90
2018-07-24T04:25:39.976Z,99.90
2018-07-24T04:28:12.890Z,99.90
2018-07-24T04:34:06.044Z,99.90
2018-07-24T04:36:38.284Z,99.90
2018-07-24T04:39:11.569Z,99.90
2018-07-24T04:41:44.055Z,99.90
2018-07-24T04:44:16.413Z,99.90
2018-07-24T04:46:48.525Z,99.90
2018-07-24T04:52:36.158Z,99.90
2018-07-24T04:55:08.884Z,99.90
2018-07-24T05:01:02.259Z,99.90
2018-07-24T05:03:34.591Z,99.90
2018-07-24T05:06:06.850Z,99.90
2018-07-24T05:08:38.996Z,99.90
2018-07-24T05:14:18.809Z,99.90
2018-07-24T05:23:20.141Z,99.90
2018-07-24T05:25:53.426Z,99.90
2018-07-24T05:28:26.750Z,99.90
2018-07-24T05:30:59.731Z,99.90
2018-07-24T05:33:32.788Z,99.90
2018-07-24T05:36:05.915Z,99.90
2018-07-24T05:38:38.903Z,99.90
2018-07-24T05:41:11.918Z,99.90
2018-07-24T05:43:44.894Z,99.90
2018-07-24T05:46:18.193Z,99.90
2018-07-24T05:48:52.017Z,99.90
2018-07-24T05:51:25.019Z,99.90
2018-07-24T05:53:58.801Z,99.90
2018-07-24T05:56:31.860Z,99.90
2018-07-24T06:01:36.360Z,99.90
2018-07-24T06:04:09.312Z,99.90
2018-07-24T06:06:42.209Z,99.90
2018-07-24T06:09:15.129Z,99.90
2018-07-24T06:11:48.139Z,99.90
2018-07-24T06:14:21.266Z,99.90
2018-07-24T06:16:54.204Z,99.90
2018-07-24T06:19:28.118Z,99.90
2018-07-24T06:22:01.241Z,99.90
2018-07-24T06:24:34.260Z,99.90
2018-07-24T06:27:07.101Z,99.90
2018-07-24T06:29:40.024Z,99.90
2018-07-24T06:32:12.941Z,99.90
2018-07-24T06:34:47.024Z,99.90
2018-07-24T06:37:20.354Z,99.90
2018-07-24T06:39:53.370Z,99.90
2018-07-24T06:42:26.270Z,99.90
2018-07-24T06:44:59.278Z,99.90
2018-07-24T06:47:32.445Z,99.90
2018-07-24T06:50:06.393Z,99.90
2018-07-24T06:52:39.488Z,99.90
2018-07-24T06:55:12.410Z,99.90
2018-07-24T06:57:45.416Z,99.90
2018-07-24T07:00:18.273Z,99.90
2018-07-24T07:02:51.270Z,99.90
2018-07-24T07:05:51.535Z,99.90
2018-07-24T07:08:24.085Z,99.90
2018-07-24T07:10:56.424Z,99.90
2018-07-24T07:13:28.712Z,99.90
2018-07-24T07:16:01.249Z,99.90
2018-07-24T07:18:33.777Z,99.90
2018-07-24T07:23:37.111Z,99.90
2018-07-24T07:26:09.548Z,99.90
2018-07-24T07:32:02.715Z,99.90
2018-07-24T07:34:34.947Z,99.90
2018-07-24T07:37:07.451Z,99.90
2018-07-24T07:39:39.829Z,99.90
2018-07-24T07:42:12.293Z,99.90
2018-07-24T07:44:44.587Z,99.90
2018-07-24T07:47:17.024Z,99.90
2018-07-24T07:49:49.355Z,99.90
2018-07-24T07:52:21.603Z,99.90
2018-07-24T07:54:54.016Z,99.90
2018-07-24T07:57:26.389Z,99.90
2018-07-24T07:59:58.722Z,99.90
2018-07-24T08:02:31.292Z,99.90
2018-07-24T08:05:03.901Z,99.90
2018-07-24T08:07:36.272Z,99.90
2018-07-24T08:13:30.039Z,99.90
2018-07-24T08:16:02.651Z,99.90
2018-07-24T08:21:06.244Z,99.90
2018-07-24T08:23:38.557Z,99.90
2018-07-24T08:26:10.989Z,99.90
2018-07-24T08:28:43.303Z,99.90
2018-07-24T08:31:15.726Z,99.90
2018-07-24T08:33:48.090Z,99.90
2018-07-24T08:39:41.929Z,99.90
2018-07-24T08:42:14.332Z,99.90
2018-07-24T08:45:13.553Z,99.90
2018-07-24T08:47:45.860Z,99.90
2018-07-24T08:50:18.633Z,99.90
2018-07-24T08:52:51.076Z,99.90
2018-07-24T08:55:23.805Z,99.90
2018-07-24T08:57:56.198Z,99.90
2018-07-24T09:00:28.439Z,99.90
2018-07-24T09:03:00.935Z,99.90
2018-07-24T09:05:33.355Z,99.90
2018-07-24T09:08:05.733Z,99.90
2018-07-24T09:10:38.001Z,99.90
2018-07-24T09:13:10.716Z,99.90
2018-07-24T09:15:43.276Z,99.90
2018-07-24T09:23:53.881Z,99.90
2018-07-24T09:26:26.258Z,99.90
2018-07-24T09:31:29.824Z,99.90
2018-07-24T09:34:02.333Z,99.90
2018-07-24T09:36:34.866Z,99.90
2018-07-24T09:39:09.472Z,99.90
2018-07-24T09:41:42.322Z,99.90
2018-07-24T09:44:14.735Z,99.90
2018-07-24T09:46:47.109Z,99.90
2018-07-24T09:49:19.456Z,99.90
2018-07-24T09:51:51.909Z,99.90
2018-07-24T09:57:31.824Z,99.90
2018-07-24T10:00:09.266Z,99.90
2018-07-24T10:02:41.900Z,99.90
2018-07-24T10:05:13.227Z,99.90
2018-07-24T10:07:45.837Z,99.90
2018-07-24T10:10:18.106Z,99.90
2018-07-24T10:12:50.466Z,99.90
2018-07-24T10:15:22.797Z,99.90
2018-07-24T10:17:55.013Z,99.90
2018-07-24T10:20:27.471Z,99.90
2018-07-24T10:22:59.728Z,99.90
2018-07-24T10:25:32.006Z,99.90
2018-07-24T10:28:04.390Z,99.90
2018-07-24T10:30:36.669Z,99.90
2018-07-24T10:33:09.817Z,99.90
2018-07-24T10:35:42.082Z,99.90
2018-07-24T10:38:14.369Z,99.90
2018-07-24T10:40:46.671Z,99.90
2018-07-24T10:43:18.934Z,99.90
2018-07-24T10:45:51.321Z,99.90
2018-07-24T10:48:23.618Z,99.90
2018-07-24T10:50:55.876Z,99.90
2018-07-24T10:53:28.072Z,99.90
2018-07-24T10:56:00.452Z,99.90
2018-07-24T10:58:34.927Z,99.90
2018-07-24T11:01:07.362Z,99.90
2018-07-24T11:03:39.752Z,99.90
2018-07-24T11:06:11.863Z,99.90
2018-07-24T11:08:44.118Z,99.90
2018-07-24T11:11:16.347Z,99.90
2018-07-24T11:13:48.611Z,99.90
2018-07-24T11:16:20.892Z,99.90
2018-07-24T11:18:53.744Z,99.90
2018-07-24T11:21:26.037Z,99.90
2018-07-24T11:23:58.409Z,99.90
2018-07-24T11:26:30.991Z,99.90
2018-07-24T11:29:03.296Z,99.90
2018-07-24T11:34:06.550Z,99.90
2018-07-24T11:36:39.470Z,99.90
2018-07-24T11:39:13.300Z,99.90
2018-07-24T11:41:46.321Z,99.90
2018-07-24T11:44:18.528Z,99.90
2018-07-24T11:46:50.971Z,99.90
2018-07-24T11:49:23.165Z,99.90
2018-07-24T11:55:16.339Z,99.90
2018-07-24T11:58:34.100Z,99.90
2018-07-24T12:01:06.839Z,99.90
2018-07-24T12:03:39.459Z,99.90
2018-07-24T12:06:56.123Z,99.90
2018-07-24T12:09:28.656Z,99.90
2018-07-24T12:12:01.245Z,99.90
2018-07-24T12:14:33.762Z,99.90
2018-07-24T12:20:37.968Z,99.90
2018-07-24T12:23:10.631Z,99.90
2018-07-24T12:25:43.175Z,99.90
2018-07-24T12:28:15.762Z,99.90
2018-07-24T12:34:08.983Z,99.90
2018-07-24T12:36:41.428Z,99.90
2018-07-24T12:39:14.094Z,99.90
2018-07-24T12:41:46.382Z,99.90
2018-07-24T12:44:56.576Z,99.90
2018-07-24T12:47:29.260Z,99.90
2018-07-24T12:50:01.732Z,99.90
2018-07-24T12:52:34.122Z,99.90
2018-07-24T12:55:06.726Z,99.90
2018-07-24T12:57:39.922Z,99.90
2018-07-24T13:00:13.540Z,99.90
2018-07-24T13:02:46.767Z,99.90
2018-07-24T13:05:19.162Z,99.90
2018-07-24T13:07:51.769Z,99.90
2018-07-24T13:10:24.142Z,99.90
2018-07-24T13:12:57.693Z,99.90
2018-07-24T13:15:30.392Z,99.90
2018-07-24T13:18:02.986Z,99.90
2018-07-24T13:20:35.444Z,99.90
2018-07-24T13:23:07.871Z,99.90
2018-07-24T13:25:40.312Z,99.90
2018-07-24T13:28:12.718Z,99.90
2018-07-24T13:30:45.221Z,99.90
2018-07-24T13:33:17.706Z,99.90
2018-07-24T13:35:50.088Z,99.90
2018-07-24T13:38:22.877Z,99.90
2018-07-24T13:40:59.923Z,99.90
2018-07-24T13:43:32.334Z,99.90
2018-07-24T13:46:05.391Z,99.90
2018-07-24T13:48:37.837Z,99.90
2018-07-24T13:51:10.701Z,99.90
2018-07-24T13:53:43.126Z,99.90
2018-07-24T13:56:15.571Z,99.90
2018-07-24T13:58:47.922Z,99.90
2018-07-24T14:01:20.807Z,99.90
2018-07-24T14:03:53.569Z,99.90
2018-07-24T14:06:26.036Z,99.90
2018-07-24T14:08:58.395Z,99.90
2018-07-24T14:11:30.850Z,99.90
2018-07-24T14:14:03.274Z,99.90
2018-07-24T14:16:35.821Z,99.90
2018-07-24T14:19:09.773Z,99.90
2018-07-24T14:21:42.345Z,99.90
2018-07-24T14:24:14.861Z,99.90
2018-07-24T14:26:47.248Z,99.90
2018-07-24T14:29:20.903Z,99.90
2018-07-24T14:31:53.433Z,99.90
2018-07-24T14:34:29.729Z,99.90
2018-07-24T14:37:03.719Z,99.90
2018-07-24T14:39:36.492Z,99.90
2018-07-24T14:42:09.249Z,99.90
2018-07-24T14:44:43.869Z,99.90
2018-07-24T14:47:16.333Z,99.90
2018-07-24T14:49:48.831Z,99.90
2018-07-24T14:52:21.209Z,99.90
2018-07-24T14:54:53.688Z,99.90
2018-07-24T14:57:26.094Z,99.90
2018-07-24T14:59:59.088Z,99.90
2018-07-24T15:02:31.454Z,99.90
2018-07-24T15:05:09.380Z,99.90
2018-07-24T15:07:41.951Z,99.90
2018-07-24T15:10:14.435Z,99.90
2018-07-24T15:12:47.573Z,99.90
2018-07-24T15:15:22.902Z,99.90
2018-07-24T15:21:10.060Z,99.90
2018-07-24T15:23:42.969Z,99.90
2018-07-24T15:26:16.180Z,99.90
2018-07-24T15:28:48.613Z,99.90
2018-07-24T15:31:21.091Z,99.90
2018-07-24T15:33:53.268Z,99.90
2018-07-24T15:36:25.434Z,99.90
2018-07-24T15:38:57.940Z,99.90
2018-07-24T15:41:45.921Z,99.90
2018-07-24T15:44:18.124Z,99.90
2018-07-24T15:46:50.297Z,99.90
2018-07-24T15:49:23.576Z,99.90
2018-07-24T15:51:55.598Z,99.90
2018-07-24T15:54:28.026Z,99.90
2018-07-24T15:57:04.338Z,99.90
2018-07-24T15:59:39.404Z,99.90
2018-07-24T16:02:15.471Z,99.90
2018-07-24T16:04:52.568Z,99.90
2018-07-24T16:07:25.019Z,99.90
2018-07-24T16:09:57.348Z,99.90
2018-07-24T16:12:31.794Z,99.90
2018-07-24T16:15:03.969Z,99.90
2018-07-24T16:17:36.498Z,99.90
2018-07-24T16:20:09.998Z,98.10
2018-07-24T16:22:42.981Z,98.40
2018-07-24T16:25:15.790Z,97.60
2018-07-24T16:27:49.334Z,97.10
2018-07-24T16:30:21.926Z,98.40
2018-07-24T16:32:55.258Z,98.60
2018-07-24T16:35:29.267Z,99.60
2018-07-24T16:38:02.665Z,99.10
2018-07-24T16:41:15.252Z,98.80
2018-07-24T16:43:49.234Z,98.60
2018-07-24T16:46:22.413Z,96.70
2018-07-24T16:48:54.876Z,96.30
2018-07-24T16:51:28.115Z,94.80
2018-07-24T16:54:06.122Z,96.40
2018-07-24T16:56:44.095Z,96.10
2018-07-24T16:59:23.858Z,94.10
2018-07-24T17:02:03.378Z,95.40
2018-07-24T17:04:42.317Z,96.90
2018-07-24T17:07:15.777Z,92.70
2018-07-24T17:09:48.257Z,91.00
2018-07-24T17:12:20.690Z,93.40
2018-07-24T17:20:47.010Z,85.50
2018-07-24T17:23:19.800Z,88.00
2018-07-24T17:29:24.048Z,76.40
2018-07-24T17:31:58.521Z,76.90
2018-07-24T17:34:31.045Z,77.00
2018-07-24T17:37:05.794Z,76.20
2018-07-24T17:42:10.197Z,79.30
2018-07-24T17:44:42.999Z,81.00
2018-07-24T17:47:28.513Z,79.00
2018-07-24T17:50:06.999Z,77.70
2018-07-24T17:52:49.415Z,76.00
2018-07-24T17:55:27.654Z,76.00
2018-07-24T18:00:39.333Z,74.70
2018-07-24T18:03:17.750Z,74.10
2018-07-24T18:06:16.823Z,75.70
2018-07-24T18:08:51.401Z,76.00
2018-07-24T18:11:33.080Z,74.10
2018-07-24T18:19:31.445Z,71.20
2018-07-24T18:22:04.832Z,72.60
2018-07-24T18:24:47.875Z,74.20
2018-07-24T18:27:23.686Z,75.90
2018-07-24T18:29:57.519Z,79.70
2018-07-24T18:35:23.418Z,75.70
2018-07-24T18:38:00.736Z,76.00
2018-07-24T18:40:33.816Z,75.20
2018-07-24T18:43:07.389Z,75.80
2018-07-24T18:45:43.213Z,77.70
2018-07-24T18:48:16.004Z,76.50
2018-07-24T18:50:48.891Z,77.90
2018-07-24T18:53:21.726Z,76.70
2018-07-24T18:55:55.957Z,73.40
2018-07-24T19:01:08.422Z,73.00
2018-07-24T19:03:43.591Z,75.30
2018-07-24T19:09:53.310Z,69.60
2018-07-24T19:12:33.906Z,71.40
2018-07-24T19:15:11.269Z,69.90
2018-07-24T19:20:17.985Z,70.70
2018-07-24T19:22:51.065Z,71.70
2018-07-24T19:25:23.885Z,72.30
2018-07-24T19:27:58.382Z,72.10
2018-07-24T19:33:02.758Z,72.30
2018-07-24T19:35:35.865Z,69.90
2018-07-24T19:38:11.573Z,70.50
2018-07-24T19:40:52.107Z,71.60
2018-07-24T19:43:25.114Z,72.00
2018-07-24T19:46:01.103Z,71.70
2018-07-24T19:48:50.064Z,72.70
2018-07-24T19:51:24.888Z,74.10
2018-07-24T19:54:01.141Z,73.50
2018-07-24T19:56:37.238Z,74.50
2018-07-24T19:59:16.785Z,72.30
2018-07-24T20:01:49.955Z,71.40
2018-07-24T20:06:56.630Z,71.20
2018-07-24T20:09:31.704Z,71.30
2018-07-24T20:12:08.517Z,70.30
2018-07-24T20:14:53.081Z,70.50
2018-07-24T20:17:43.945Z,71.50
2018-07-24T20:20:24.821Z,71.40
2018-07-24T20:22:57.665Z,72.70
2018-07-24T20:25:41.264Z,72.10
2018-07-24T20:28:14.535Z,71.80
2018-07-24T20:30:47.689Z,71.00
2018-07-24T20:33:26.509Z,70.10
2018-07-24T20:36:06.564Z,69.40
2018-07-24T20:41:27.795Z,69.20
2018-07-24T20:44:01.225Z,72.30
2018-07-24T20:46:34.364Z,71.70
2018-07-24T20:49:23.887Z,71.90
2018-07-24T20:51:59.278Z,71.50
2018-07-24T20:57:53.925Z,68.30
2018-07-24T21:00:28.686Z,67.50
2018-07-24T21:03:03.947Z,65.40
2018-07-24T21:05:44.272Z,65.70
2018-07-24T21:08:19.839Z,66.80
2018-07-24T21:10:52.799Z,67.00
2018-07-24T21:13:30.641Z,66.90
2018-07-24T21:16:09.450Z,67.20
2018-07-24T21:18:42.575Z,67.00
2018-07-24T21:21:24.080Z,68.00
2018-07-24T21:24:04.525Z,66.10
2018-07-24T21:26:42.007Z,63.50
2018-07-24T21:29:14.814Z,65.90
2018-07-24T21:31:48.598Z,67.70
2018-07-24T21:34:21.281Z,68.10
2018-07-24T21:36:57.425Z,66.00
2018-07-24T21:39:30.358Z,67.10
2018-07-24T21:42:18.904Z,65.70
2018-07-24T21:45:20.256Z,65.30
2018-07-24T21:47:54.236Z,64.70
2018-07-24T21:50:30.250Z,64.00
2018-07-24T21:53:03.142Z,64.70
2018-07-24T21:55:36.001Z,65.00
2018-07-24T21:58:11.429Z,65.80
2018-07-24T22:00:44.134Z,65.70
2018-07-24T22:03:17.831Z,64.60
2018-07-24T22:05:50.835Z,64.60
2018-07-24T22:08:23.631Z,64.30
2018-07-24T22:14:28.734Z,66.70
2018-07-24T22:17:01.414Z,67.40
2018-07-24T22:19:59.838Z,67.20
2018-07-24T22:22:32.793Z,67.00
2018-07-24T22:25:06.070Z,68.10
2018-07-24T22:27:38.497Z,69.10
2018-07-24T22:30:11.776Z,70.20
2018-07-24T22:32:44.290Z,69.90
2018-07-24T22:35:16.664Z,70.10
2018-07-24T22:37:50.087Z,70.80
2018-07-24T22:40:22.989Z,71.00
2018-07-24T22:46:17.113Z,69.10
2018-07-24T22:48:49.973Z,68.00
2018-07-24T22:51:23.496Z,69.30
2018-07-24T22:53:56.336Z,69.80
2018-07-24T22:56:29.305Z,88.90
2018-07-24T22:59:02.411Z,98.30
2018-07-24T23:01:35.700Z,84.40
2018-07-24T23:04:09.635Z,76.30
2018-07-24T23:06:42.622Z,74.20
2018-07-24T23:09:16.637Z,69.70
2018-07-24T23:11:49.368Z,68.80
2018-07-24T23:14:22.529Z,67.90
2018-07-24T23:16:55.408Z,68.10
2018-07-24T23:19:28.407Z,70.20
2018-07-24T23:22:01.387Z,71.40
2018-07-24T23:24:35.168Z,71.10
2018-07-24T23:27:12.996Z,71.00
2018-07-24T23:29:50.977Z,70.30
2018-07-24T23:32:44.103Z,70.20
2018-07-24T23:35:16.954Z,69.00
2018-07-24T23:37:50.053Z,67.60
2018-07-24T23:40:23.218Z,67.00
2018-07-24T23:42:56.303Z,67.30
2018-07-24T23:45:30.739Z,67.20
2018-07-24T23:48:04.177Z,67.70
2018-07-24T23:50:37.832Z,70.20
2018-07-24T23:53:17.000Z,71.70
2018-07-24T23:55:52.296Z,73.60
2018-07-24T23:58:25.218Z,76.50
